Plain Dealing, Louisiana
Current Conditions -  °F | °C
As of 8:53 PM on Friday 19 Dec 2014 (Local Time) from KDTN Reporting Station
Overcast Overcast  
Wind Chill:   Ceiling: 700
Heat Index:   Visibility: 10mi
Dew Point:   Wind: 6mph
Humidity: 86%   Direction: 60°ENE
Pressure: 30.19"   Gusts: NA
Location:  32.91°N, 93.7°W
Report Text: KDTN 200253Z 06005KT 10SM OVC007 08/06 A3019 RMK AO2 SLP224 P0001 60002 T00830061 51011
Loading
Personal Weather Stations






























Interactive Weather Map New forecast layout! Learn more

10-Day Weather Forecast

Advertisements
Track Severe Weather on mobile